Aeroporto :
LOGIN :

Iscrizione | Disclaimer

   EN    FR    IT 

 










Sommario :    VFR   VFR Marginale   IFR   IFR Intensivo   IFR Molto Intensivo
Visibilità : 
Base nubi : 
>= 8 km
>= 3000ft
5 / 8 km
1000 / 3000 ft
1500m / 5 km
500 / 1000 ft
800 / 1500m
200 / 500 ft
< 800m
< 200 ft
Simboli :   Temporali  Nebbia  Neve Forte  Precipitazioni Forti  Vento > 20 kt
SIGMETs :   Varie  Temporali  Ghiacco  Turbolenza  Onda orograficha  Ceneri Vulcaniche






- Altitudine del aeroporto : 146 ft
- Codice IATA : RKE


EKRK - Roskilde Tune

ULTIMO METAR :
  • 191450Z AUTO 21012KT 9999 -RA OVC005/// 08/07 Q1010

METARs OBSOLETI :
  • 191420Z AUTO 18007KT 2300 -DZ OVC004/// 07/06 Q1010
  • 191350Z AUTO 17006KT 1700 -DZ BR OVC005/// 06/06 Q1009
  • 191320Z AUTO 18005KT 9999 OVC008/// 07/05 Q1009
  • 191250Z AUTO 19004KT 9999 OVC008/// 06/05 Q1008
  • 191220Z AUTO 21006KT 9999 OVC008/// 06/04 Q1008

TAF TAF EKRK
Valido dal 19 a 15 ore il 20 a 00 ore UTC


191402Z 1915/1924 17010KT 2500 DZ BKN004
BECMG 1915/1917 23012KT 8000 NSW BKN012
BECMG 1917/1919 BKN015
TEMPO 1919/1922 BKN012



MetMap, La meteo Aeronautica in un colpo d'occhio ! - Copyright ORBIFLY Dicembre 2007 - Disclaimer

ORBIFLY MET'MAP TEAM :

Programmazione e sviluppo : Alexandra Zaïnal
Concezione e sviluppo : Baudouin d'Aumeries
Co-Programmazione e sviluppo : Marc-Olivier Méhu
Supporto tecnico e logistico : Manuel Goepfert
Aiuto per la traduzione : Arnaldo La Scala

Contatto : metmap@orbifly.com




FONTI E CREDITI :

   NOAA